OPKCSBEG

Guest
Details From OPKC - Karachi Jinnah Intl
To SBEG - Eduardo Gomes
Flight Number -
Tags Generated
Created
Modified
Stats Distance 7,492 nm / 13,876 km
Max Altitude 0 ft / 0 m
Waypoints 5
Social Downloads 0
Likes 0
Share VATSIM

Download

Looking for another format? Having issues loading an existing format? Contact us
Advertisement - Login to hide

Notes

Generated

Route

OPKC KAPAG DELMA R2923 SBEG

ID Type Via Altitude Latitude Longitude Leg Dist Tot Dist Heading (true) Name
O OPKC APT - 0 ft / 0 m 24.90471˚ 67.14755˚ - 0 nm - -
KAPAG FIX - 0 ft / 0 m 28.06528˚ 46.64583˚ 1116 nm 1116 nm 284° / 275° -
DELMA FIX - 0 ft / 0 m 28.51139˚ 34.53667˚ 640 nm 1757 nm 275° / 270° -
R2923 FIX - 0 ft / 0 m -3.03858˚ -60.06189˚ 5734 nm 7492 nm 270° / 242° -
O SBEG APT - 0 ft / 0 m -3.03858˚ -60.06189˚ 0 nm 7492 nm 0° / 180° -

Altitude Profile

Advertisement - Login to hide

Weather


0- 5 10 15 20 25 30 35+ Temperature / ° C

Clouds and Precipitation
Forecast for 2017-12-12 12:00 UTC. Updated an hour ago

Ground ~20,000 ft ~40,000 ft Winds

OPKC

Details ICAO OPKC (KHI)
Name Karachi Jinnah Intl
Region Pakistan
Timezone Asia/Karachi (UTC+5.0)
Stats Elevation 100 ft / 30 m (AMSL)
Location 24.906547° 67.160797°
Runways 2
Magnetic Variation 1.072° E

METAR

OPKC 120755Z 29006KT 6000 NSC 26/M07 Q1015 NOSIG

Decode

TAF

Not found

Departure Runways

ID Width Length Bearing (true) Bearing (mag) Surface Threshold Offset Overrun Length
07L 151 ft / 46 m 10,451 ft / 3,186 m 74.40° 73.33° Concrete 0 ft / 0 m 1,000 ft / 305 m
07R 151 ft / 46 m 11,145 ft / 3,397 m 74.22° 73.15° Concrete 0 ft / 0 m 990 ft / 302 m
25L 151 ft / 46 m 11,145 ft / 3,397 m 254.24° 253.17° Concrete 0 ft / 0 m 625 ft / 191 m
25R 151 ft / 46 m 10,451 ft / 3,186 m 254.41° 253.34° Concrete 0 ft / 0 m 1,000 ft / 305 m

SBEG

Details ICAO SBEG (MAO)
Name Eduardo Gomes
Region Brazil
Timezone America/Manaus (UTC-4.0)
Stats Elevation 264 ft / 80 m (AMSL)
Location -3.038611° -60.049723°
Runways 1
Magnetic Variation 15.760° W

METAR

SBEG 120800Z 20003KT 9999 FEW008 25/23 Q1009

Decode

TAF

TAF SBEG 120400Z 1206/1306 18002KT 9999 SCT005 TN24/1207Z TX28/1220Z BECMG 1207/1209 9999 BKN005 FEW020TCU BECMG 1211/1212 21005KT 3000 RA BKN010 BECMG 1214/1216 22002KT 9999 SCT006 BECMG 1218/1220 15003KT SCT015 BECMG 1300/1302 FEW010 BECMG 1304/1305 BKN005 RMK PDY

Decode

Destination Runways

ID Width Length Bearing (true) Bearing (mag) Surface Threshold Offset Overrun Length
10 148 ft / 45 m 8,867 ft / 2,703 m 90.13° 105.89° Asphalt 0 ft / 0 m 215 ft / 66 m
28 148 ft / 45 m 8,867 ft / 2,703 m 270.13° 285.89° Asphalt 0 ft / 0 m 250 ft / 76 m

Approach Navaids

Runway Type Ident Frequency Range Bearing (true) Bearing (mag) Slope Elevation
10 Localiser IEG 110.30 MHz 18 nm / 33 km 90.55° 106.31° - 275 ft / 84 m (AMSL)
10 Glidescope IEG 110.30 MHz 10 nm / 19 km 90.13° 105.89° 3.04° 275 ft / 84 m (AMSL)
10 DME IEG 110.30 MHz 18 nm / 33 km - - - 264 ft / 80 m (AMSL)